This is the latest recevied weather packets stored in our database for station/object WY7ATH-2. If no packets are shown the sender has not sent any weather packets the latest 10 day(s).
| Time | Temp. | Humidity | Pressure | Rain* | Wind** | Luminosity | Snow |
|---|---|---|---|---|---|---|---|
| 1788420765 | 14.44° C | - | - | 0 mm | 0 m/s | - | - |
| 1788420168 | 15.56° C | - | - | 0 mm | 0.89 m/s, 260° | - | - |
| 1788417776 | 13.89° C | - | - | 0 mm | 0 m/s | - | - |
| 1788417179 | 13.33° C | - | - | 0 mm | 0 m/s | - | - |
| 1788416582 | 13.33° C | - | - | 0 mm | 0 m/s | - | - |
| 1788415982 | 13.89° C | - | - | 0 mm | 0.45 m/s, 301° | - | - |
| 1788415385 | 13.89° C | - | - | 0 mm | 0.89 m/s, 238° | - | - |
| 1788414191 | 13.89° C | - | - | 0 mm | 0 m/s | - | - |
| 1788413594 | 15.56° C | - | - | 0 mm | 1.34 m/s, 203° | - | - |
| 1788369874 | 26.67° C | - | - | 22.86 mm | 7.15 m/s, 215° | - | - |
| 1788367486 | 26.67° C | - | - | 19.56 mm | 8.05 m/s, 243° | - | - |
| 1788366885 | 26.67° C | - | - | 19.56 mm | 8.05 m/s, 239° | - | - |
| 1788366288 | 26.67° C | - | - | 19.56 mm | 5.36 m/s, 259° | - | - |
| 1788365691 | 26.67° C | - | - | 19.56 mm | 6.26 m/s, 269° | - | - |
| 1788365306 | 26.67° C | - | - | 19.56 mm | 7.15 m/s, 263° | - | - |
| 1788365094 | 26.67° C | - | - | 19.56 mm | 7.15 m/s, 263° | - | - |
| 1788362702 | 26.67° C | - | - | 17.27 mm | 4.02 m/s, 301° | - | - |
| 1788362105 | 24.44° C | - | - | 17.27 mm | 3.13 m/s, 274° | - | - |
| 1788361508 | 25° C | - | - | 17.27 mm | 3.58 m/s, 217° | - | - |
| 1788359117 | 23.33° C | - | - | 11.18 mm | 4.47 m/s, 301° | - | - |
| 1788357326 | 20.56° C | - | - | 1.52 mm | 0 m/s | - | - |
| 1788356729 | 22.78° C | - | - | 1.52 mm | 2.68 m/s, 274° | - | - |
| 1788356128 | 22.78° C | - | - | 1.52 mm | 0 m/s | - | - |
| 1788355531 | 22.78° C | - | - | 1.52 mm | 0 m/s | - | - |
| 1788354337 | 18.89° C | - | - | 1.52 mm | 0 m/s | - | - |
* Rain latest hour (hover to see other rain measurements)
** Current wind speed in m/s (hover to see current wind gust speed)